sensor_id;sensor_type;location;lat;lon;timestamp;temperature;humidity
20650;DHT22;10484;48.736;9.332;2024-03-17T00:01:38;8.60;1.00
20650;DHT22;10484;48.736;9.332;2024-03-17T00:04:06;8.50;1.00
20650;DHT22;10484;48.736;9.332;2024-03-17T00:06:32;8.50;1.00
20650;DHT22;10484;48.736;9.332;2024-03-17T00:08:58;8.40;1.00
20650;DHT22;10484;48.736;9.332;2024-03-17T00:11:24;8.40;1.00
20650;DHT22;10484;48.736;9.332;2024-03-17T00:13:49;8.40;1.00
20650;DHT22;10484;48.736;9.332;2024-03-17T00:16:15;8.40;1.00
20650;DHT22;10484;48.736;9.332;2024-03-17T00:18:44;8.40;1.00
20650;DHT22;10484;48.736;9.332;2024-03-17T00:21:11;8.40;1.00
20650;DHT22;10484;48.736;9.332;2024-03-17T00:23:37;8.30;1.00
20650;DHT22;10484;48.736;9.332;2024-03-17T00:26:03;8.30;1.00
20650;DHT22;10484;48.736;9.332;2024-03-17T00:28:29;8.30;1.60
20650;DHT22;10484;48.736;9.332;2024-03-17T00:30:54;8.30;1.90
20650;DHT22;10484;48.736;9.332;2024-03-17T00:33:20;8.30;2.20
20650;DHT22;10484;48.736;9.332;2024-03-17T00:35:46;8.20;2.80
20650;DHT22;10484;48.736;9.332;2024-03-17T00:38:11;8.20;3.10
20650;DHT22;10484;48.736;9.332;2024-03-17T00:40:38;8.20;3.40
20650;DHT22;10484;48.736;9.332;2024-03-17T00:43:06;8.20;3.70
20650;DHT22;10484;48.736;9.332;2024-03-17T00:45:31;8.20;3.80
20650;DHT22;10484;48.736;9.332;2024-03-17T00:47:57;8.20;4.30
20650;DHT22;10484;48.736;9.332;2024-03-17T00:50:23;8.20;4.50
20650;DHT22;10484;48.736;9.332;2024-03-17T00:52:48;8.10;4.50
20650;DHT22;10484;48.736;9.332;2024-03-17T00:55:14;8.10;4.60
20650;DHT22;10484;48.736;9.332;2024-03-17T00:57:40;8.10;5.00
20650;DHT22;10484;48.736;9.332;2024-03-17T01:00:06;8.00;4.80
20650;DHT22;10484;48.736;9.332;2024-03-17T01:02:32;8.00;5.00
20650;DHT22;10484;48.736;9.332;2024-03-17T01:04:58;8.00;5.10
20650;DHT22;10484;48.736;9.332;2024-03-17T01:07:23;8.00;5.40
20650;DHT22;10484;48.736;9.332;2024-03-17T01:09:49;8.00;5.40
20650;DHT22;10484;48.736;9.332;2024-03-17T01:12:15;7.90;5.80
20650;DHT22;10484;48.736;9.332;2024-03-17T01:14:40;7.90;6.20
20650;DHT22;10484;48.736;9.332;2024-03-17T01:17:06;7.90;6.70
20650;DHT22;10484;48.736;9.332;2024-03-17T01:19:32;7.90;6.90
20650;DHT22;10484;48.736;9.332;2024-03-17T01:22:01;7.90;7.30
20650;DHT22;10484;48.736;9.332;2024-03-17T01:24:27;7.90;7.70
20650;DHT22;10484;48.736;9.332;2024-03-17T01:26:57;7.90;8.00
20650;DHT22;10484;48.736;9.332;2024-03-17T01:29:23;7.90;8.60
20650;DHT22;10484;48.736;9.332;2024-03-17T01:31:49;7.90;8.90
20650;DHT22;10484;48.736;9.332;2024-03-17T01:34:16;7.80;9.10
20650;DHT22;10484;48.736;9.332;2024-03-17T01:36:41;7.80;9.70
20650;DHT22;10484;48.736;9.332;2024-03-17T01:39:07;7.80;10.40
20650;DHT22;10484;48.736;9.332;2024-03-17T01:41:33;7.80;11.00
20650;DHT22;10484;48.736;9.332;2024-03-17T01:43:58;7.80;11.70
20650;DHT22;10484;48.736;9.332;2024-03-17T01:46:24;7.80;12.40
20650;DHT22;10484;48.736;9.332;2024-03-17T01:48:50;7.80;13.10
20650;DHT22;10484;48.736;9.332;2024-03-17T01:51:17;7.80;13.80
20650;DHT22;10484;48.736;9.332;2024-03-17T01:53:44;7.80;14.30
20650;DHT22;10484;48.736;9.332;2024-03-17T01:56:10;7.80;15.00
20650;DHT22;10484;48.736;9.332;2024-03-17T01:58:37;7.80;15.30
20650;DHT22;10484;48.736;9.332;2024-03-17T02:01:03;7.80;16.10
20650;DHT22;10484;48.736;9.332;2024-03-17T02:03:30;7.80;16.40
20650;DHT22;10484;48.736;9.332;2024-03-17T02:05:55;7.80;17.10
20650;DHT22;10484;48.736;9.332;2024-03-17T02:08:21;7.80;17.50
20650;DHT22;10484;48.736;9.332;2024-03-17T02:10:53;7.80;18.30
20650;DHT22;10484;48.736;9.332;2024-03-17T02:13:19;7.80;18.60
20650;DHT22;10484;48.736;9.332;2024-03-17T02:15:45;7.80;19.70
20650;DHT22;10484;48.736;9.332;2024-03-17T02:18:10;7.80;20.00
20650;DHT22;10484;48.736;9.332;2024-03-17T02:20:36;7.80;20.80
20650;DHT22;10484;48.736;9.332;2024-03-17T02:23:20;7.80;21.10
20650;DHT22;10484;48.736;9.332;2024-03-17T02:25:45;7.80;21.40
20650;DHT22;10484;48.736;9.332;2024-03-17T02:28:12;7.80;22.20
20650;DHT22;10484;48.736;9.332;2024-03-17T02:30:37;7.80;23.10
20650;DHT22;10484;48.736;9.332;2024-03-17T02:33:03;7.80;23.80
20650;DHT22;10484;48.736;9.332;2024-03-17T02:35:29;7.70;24.10
20650;DHT22;10484;48.736;9.332;2024-03-17T02:37:54;7.70;24.80
20650;DHT22;10484;48.736;9.332;2024-03-17T02:40:20;7.80;26.00
20650;DHT22;10484;48.736;9.332;2024-03-17T02:42:46;7.80;26.60
20650;DHT22;10484;48.736;9.332;2024-03-17T02:45:12;7.80;27.10
20650;DHT22;10484;48.736;9.332;2024-03-17T02:47:38;7.70;30.20
20650;DHT22;10484;48.736;9.332;2024-03-17T02:50:04;7.70;27.70
20650;DHT22;10484;48.736;9.332;2024-03-17T02:52:30;7.70;27.80
20650;DHT22;10484;48.736;9.332;2024-03-17T02:54:56;7.70;28.60
20650;DHT22;10484;48.736;9.332;2024-03-17T02:57:22;7.70;29.20
20650;DHT22;10484;48.736;9.332;2024-03-17T02:59:55;7.70;29.90
20650;DHT22;10484;48.736;9.332;2024-03-17T03:02:20;7.70;31.00
20650;DHT22;10484;48.736;9.332;2024-03-17T03:04:46;7.70;31.90
20650;DHT22;10484;48.736;9.332;2024-03-17T03:07:12;7.70;31.80
20650;DHT22;10484;48.736;9.332;2024-03-17T03:09:38;7.70;32.40
20650;DHT22;10484;48.736;9.332;2024-03-17T03:12:03;7.60;33.10
20650;DHT22;10484;48.736;9.332;2024-03-17T03:14:29;7.60;34.20
20650;DHT22;10484;48.736;9.332;2024-03-17T03:16:55;7.60;34.60
20650;DHT22;10484;48.736;9.332;2024-03-17T03:19:21;7.50;34.80
20650;DHT22;10484;48.736;9.332;2024-03-17T03:21:47;7.50;34.80
20650;DHT22;10484;48.736;9.332;2024-03-17T03:24:14;7.50;34.60
20650;DHT22;10484;48.736;9.332;2024-03-17T03:26:40;7.50;34.30
20650;DHT22;10484;48.736;9.332;2024-03-17T03:29:05;7.50;34.10
20650;DHT22;10484;48.736;9.332;2024-03-17T03:31:34;7.50;34.00
20650;DHT22;10484;48.736;9.332;2024-03-17T03:34:00;7.40;33.60
20650;DHT22;10484;48.736;9.332;2024-03-17T03:36:27;7.50;34.00
20650;DHT22;10484;48.736;9.332;2024-03-17T03:38:52;7.40;34.20
20650;DHT22;10484;48.736;9.332;2024-03-17T03:41:19;7.40;34.50
20650;DHT22;10484;48.736;9.332;2024-03-17T03:43:45;7.40;34.30
20650;DHT22;10484;48.736;9.332;2024-03-17T03:46:13;7.40;33.70
20650;DHT22;10484;48.736;9.332;2024-03-17T03:48:39;7.30;33.90
20650;DHT22;10484;48.736;9.332;2024-03-17T03:51:05;7.30;34.30
20650;DHT22;10484;48.736;9.332;2024-03-17T03:53:32;7.30;33.70
20650;DHT22;10484;48.736;9.332;2024-03-17T03:55:58;7.30;33.10
20650;DHT22;10484;48.736;9.332;2024-03-17T03:58:30;7.30;32.40
20650;DHT22;10484;48.736;9.332;2024-03-17T04:00:55;7.20;32.00
20650;DHT22;10484;48.736;9.332;2024-03-17T04:03:21;7.20;31.70
20650;DHT22;10484;48.736;9.332;2024-03-17T04:05:47;7.20;32.00
20650;DHT22;10484;48.736;9.332;2024-03-17T04:08:13;7.20;31.30
20650;DHT22;10484;48.736;9.332;2024-03-17T04:10:39;7.20;34.80
20650;DHT22;10484;48.736;9.332;2024-03-17T04:13:04;7.10;29.20
20650;DHT22;10484;48.736;9.332;2024-03-17T04:15:30;7.10;28.40
20650;DHT22;10484;48.736;9.332;2024-03-17T04:17:55;7.10;28.10
20650;DHT22;10484;48.736;9.332;2024-03-17T04:20:21;7.10;28.70
20650;DHT22;10484;48.736;9.332;2024-03-17T04:22:47;7.00;29.50
20650;DHT22;10484;48.736;9.332;2024-03-17T04:25:14;7.00;30.30
20650;DHT22;10484;48.736;9.332;2024-03-17T04:27:39;7.00;31.40
20650;DHT22;10484;48.736;9.332;2024-03-17T04:30:06;7.00;32.40
20650;DHT22;10484;48.736;9.332;2024-03-17T04:32:32;7.00;33.10
20650;DHT22;10484;48.736;9.332;2024-03-17T04:34:59;7.00;33.50
20650;DHT22;10484;48.736;9.332;2024-03-17T04:37:24;7.00;34.10
20650;DHT22;10484;48.736;9.332;2024-03-17T04:39:50;7.00;34.40
20650;DHT22;10484;48.736;9.332;2024-03-17T04:42:17;7.00;34.50
20650;DHT22;10484;48.736;9.332;2024-03-17T04:44:45;7.10;34.60
20650;DHT22;10484;48.736;9.332;2024-03-17T04:47:11;7.00;34.60
20650;DHT22;10484;48.736;9.332;2024-03-17T04:49:39;7.00;34.60
20650;DHT22;10484;48.736;9.332;2024-03-17T04:52:05;7.00;34.80
20650;DHT22;10484;48.736;9.332;2024-03-17T04:54:31;7.00;34.60
20650;DHT22;10484;48.736;9.332;2024-03-17T04:56:57;7.00;34.60
20650;DHT22;10484;48.736;9.332;2024-03-17T04:59:23;7.00;34.90
20650;DHT22;10484;48.736;9.332;2024-03-17T05:01:48;6.90;34.50
20650;DHT22;10484;48.736;9.332;2024-03-17T05:04:14;6.90;34.80
20650;DHT22;10484;48.736;9.332;2024-03-17T05:06:40;6.90;34.60
20650;DHT22;10484;48.736;9.332;2024-03-17T05:09:08;6.90;34.60
20650;DHT22;10484;48.736;9.332;2024-03-17T05:11:33;6.90;34.50
20650;DHT22;10484;48.736;9.332;2024-03-17T05:14:00;6.90;34.50
20650;DHT22;10484;48.736;9.332;2024-03-17T05:16:26;6.80;34.40
20650;DHT22;10484;48.736;9.332;2024-03-17T05:18:55;6.80;34.40
20650;DHT22;10484;48.736;9.332;2024-03-17T05:21:20;6.70;34.40
20650;DHT22;10484;48.736;9.332;2024-03-17T05:23:47;6.80;34.40
20650;DHT22;10484;48.736;9.332;2024-03-17T05:26:13;6.70;34.30
20650;DHT22;10484;48.736;9.332;2024-03-17T05:28:39;6.70;34.20
20650;DHT22;10484;48.736;9.332;2024-03-17T05:31:05;6.60;34.10
20650;DHT22;10484;48.736;9.332;2024-03-17T05:33:31;6.70;34.00
20650;DHT22;10484;48.736;9.332;2024-03-17T05:35:57;6.60;34.00
20650;DHT22;10484;48.736;9.332;2024-03-17T05:38:25;6.60;33.90
20650;DHT22;10484;48.736;9.332;2024-03-17T05:43:26;6.60;34.20
20650;DHT22;10484;48.736;9.332;2024-03-17T05:45:57;6.50;34.10
20650;DHT22;10484;48.736;9.332;2024-03-17T05:48:23;6.50;34.10
20650;DHT22;10484;48.736;9.332;2024-03-17T05:50:52;6.60;34.20
20650;DHT22;10484;48.736;9.332;2024-03-17T05:53:18;6.60;34.30
20650;DHT22;10484;48.736;9.332;2024-03-17T05:55:44;6.60;34.40
20650;DHT22;10484;48.736;9.332;2024-03-17T05:58:10;6.60;34.30
20650;DHT22;10484;48.736;9.332;2024-03-17T06:00:37;6.50;34.30
20650;DHT22;10484;48.736;9.332;2024-03-17T06:03:04;6.50;34.80
20650;DHT22;10484;48.736;9.332;2024-03-17T06:05:33;6.60;34.40
20650;DHT22;10484;48.736;9.332;2024-03-17T06:08:03;6.60;34.40
20650;DHT22;10484;48.736;9.332;2024-03-17T06:10:30;6.50;34.40
20650;DHT22;10484;48.736;9.332;2024-03-17T06:12:56;6.60;34.60
20650;DHT22;10484;48.736;9.332;2024-03-17T06:15:25;6.50;34.40
20650;DHT22;10484;48.736;9.332;2024-03-17T06:17:52;6.50;34.40
20650;DHT22;10484;48.736;9.332;2024-03-17T06:20:25;6.60;34.40
20650;DHT22;10484;48.736;9.332;2024-03-17T06:22:54;6.60;34.40
20650;DHT22;10484;48.736;9.332;2024-03-17T06:25:20;6.60;34.40
20650;DHT22;10484;48.736;9.332;2024-03-17T06:27:53;6.60;34.40
20650;DHT22;10484;48.736;9.332;2024-03-17T06:30:19;6.50;36.20
20650;DHT22;10484;48.736;9.332;2024-03-17T06:32:46;6.50;34.40
20650;DHT22;10484;48.736;9.332;2024-03-17T06:35:12;6.50;34.30
20650;DHT22;10484;48.736;9.332;2024-03-17T06:37:46;6.50;34.30
20650;DHT22;10484;48.736;9.332;2024-03-17T06:40:13;6.60;34.40
20650;DHT22;10484;48.736;9.332;2024-03-17T06:42:39;6.60;34.50
20650;DHT22;10484;48.736;9.332;2024-03-17T06:45:06;6.60;34.40
20650;DHT22;10484;48.736;9.332;2024-03-17T06:47:37;6.60;34.50
20650;DHT22;10484;48.736;9.332;2024-03-17T06:50:04;6.60;34.40
20650;DHT22;10484;48.736;9.332;2024-03-17T06:52:30;6.60;38.50
20650;DHT22;10484;48.736;9.332;2024-03-17T06:54:56;6.70;34.50
20650;DHT22;10484;48.736;9.332;2024-03-17T06:57:23;6.70;34.50
20650;DHT22;10484;48.736;9.332;2024-03-17T06:59:49;6.70;34.50
20650;DHT22;10484;48.736;9.332;2024-03-17T07:02:14;6.70;34.60
20650;DHT22;10484;48.736;9.332;2024-03-17T07:04:43;6.80;34.80
20650;DHT22;10484;48.736;9.332;2024-03-17T07:07:09;6.80;34.80
20650;DHT22;10484;48.736;9.332;2024-03-17T07:09:35;6.80;35.10
20650;DHT22;10484;48.736;9.332;2024-03-17T07:12:00;6.90;35.50
20650;DHT22;10484;48.736;9.332;2024-03-17T07:14:26;6.90;35.70
20650;DHT22;10484;48.736;9.332;2024-03-17T07:16:52;6.90;35.10
20650;DHT22;10484;48.736;9.332;2024-03-17T07:19:18;7.00;35.10
20650;DHT22;10484;48.736;9.332;2024-03-17T07:21:44;7.00;35.30
20650;DHT22;10484;48.736;9.332;2024-03-17T07:24:09;7.10;35.30
20650;DHT22;10484;48.736;9.332;2024-03-17T07:26:35;7.10;35.20
20650;DHT22;10484;48.736;9.332;2024-03-17T07:29:00;7.10;35.90
20650;DHT22;10484;48.736;9.332;2024-03-17T07:31:26;7.20;36.40
20650;DHT22;10484;48.736;9.332;2024-03-17T07:33:51;7.20;36.80
20650;DHT22;10484;48.736;9.332;2024-03-17T07:36:17;7.20;37.00
20650;DHT22;10484;48.736;9.332;2024-03-17T07:38:43;7.30;37.60
20650;DHT22;10484;48.736;9.332;2024-03-17T07:41:09;7.30;37.10
20650;DHT22;10484;48.736;9.332;2024-03-17T07:43:36;7.30;37.20
20650;DHT22;10484;48.736;9.332;2024-03-17T07:46:07;7.30;38.50
20650;DHT22;10484;48.736;9.332;2024-03-17T07:48:34;7.40;36.90
20650;DHT22;10484;48.736;9.332;2024-03-17T07:51:14;7.40;35.80
20650;DHT22;10484;48.736;9.332;2024-03-17T07:53:41;7.50;35.70
20650;DHT22;10484;48.736;9.332;2024-03-17T07:56:11;7.50;36.40
20650;DHT22;10484;48.736;9.332;2024-03-17T07:58:39;7.50;36.20
20650;DHT22;10484;48.736;9.332;2024-03-17T08:03:36;7.50;36.70
20650;DHT22;10484;48.736;9.332;2024-03-17T08:06:04;7.60;37.20
20650;DHT22;10484;48.736;9.332;2024-03-17T08:08:30;7.70;35.80
20650;DHT22;10484;48.736;9.332;2024-03-17T08:10:56;7.70;35.80
20650;DHT22;10484;48.736;9.332;2024-03-17T08:13:22;7.80;36.50
20650;DHT22;10484;48.736;9.332;2024-03-17T08:16:00;7.80;36.00
20650;DHT22;10484;48.736;9.332;2024-03-17T08:18:26;7.90;35.70
20650;DHT22;10484;48.736;9.332;2024-03-17T08:20:53;7.90;36.10
20650;DHT22;10484;48.736;9.332;2024-03-17T08:23:20;7.90;36.70
20650;DHT22;10484;48.736;9.332;2024-03-17T08:25:56;8.00;36.10
20650;DHT22;10484;48.736;9.332;2024-03-17T08:28:23;8.10;35.70
20650;DHT22;10484;48.736;9.332;2024-03-17T08:30:59;8.30;35.80
20650;DHT22;10484;48.736;9.332;2024-03-17T08:33:25;8.30;35.80
20650;DHT22;10484;48.736;9.332;2024-03-17T08:35:59;8.30;36.00
20650;DHT22;10484;48.736;9.332;2024-03-17T08:38:26;8.30;35.80
20650;DHT22;10484;48.736;9.332;2024-03-17T08:40:54;8.40;35.90
20650;DHT22;10484;48.736;9.332;2024-03-17T08:43:20;8.40;35.80
20650;DHT22;10484;48.736;9.332;2024-03-17T08:46:02;8.40;35.90
20650;DHT22;10484;48.736;9.332;2024-03-17T08:48:30;8.50;40.10
20650;DHT22;10484;48.736;9.332;2024-03-17T08:50:59;8.50;36.00
20650;DHT22;10484;48.736;9.332;2024-03-17T08:53:26;8.60;36.10
20650;DHT22;10484;48.736;9.332;2024-03-17T08:55:52;8.70;36.40
20650;DHT22;10484;48.736;9.332;2024-03-17T08:58:19;8.80;36.20
20650;DHT22;10484;48.736;9.332;2024-03-17T09:00:44;9.00;36.30
20650;DHT22;10484;48.736;9.332;2024-03-17T09:03:11;9.20;36.50
20650;DHT22;10484;48.736;9.332;2024-03-17T09:05:41;9.30;36.60
20650;DHT22;10484;48.736;9.332;2024-03-17T09:08:07;9.30;36.50
20650;DHT22;10484;48.736;9.332;2024-03-17T09:10:42;9.40;38.00
20650;DHT22;10484;48.736;9.332;2024-03-17T09:13:14;9.40;36.60
20650;DHT22;10484;48.736;9.332;2024-03-17T09:18:18;9.40;36.50
20650;DHT22;10484;48.736;9.332;2024-03-17T09:20:44;9.50;36.50
20650;DHT22;10484;48.736;9.332;2024-03-17T09:23:11;9.50;36.40
20650;DHT22;10484;48.736;9.332;2024-03-17T09:25:36;9.60;36.30
20650;DHT22;10484;48.736;9.332;2024-03-17T09:28:02;9.70;36.50
20650;DHT22;10484;48.736;9.332;2024-03-17T09:30:28;9.80;35.50
20650;DHT22;10484;48.736;9.332;2024-03-17T09:32:54;9.80;34.40
20650;DHT22;10484;48.736;9.332;2024-03-17T09:35:19;9.90;30.60
20650;DHT22;10484;48.736;9.332;2024-03-17T09:37:45;10.00;27.00
20650;DHT22;10484;48.736;9.332;2024-03-17T09:40:14;10.00;24.50
20650;DHT22;10484;48.736;9.332;2024-03-17T09:42:41;10.10;22.50
20650;DHT22;10484;48.736;9.332;2024-03-17T09:45:10;10.10;20.70
20650;DHT22;10484;48.736;9.332;2024-03-17T09:47:36;10.10;19.40
20650;DHT22;10484;48.736;9.332;2024-03-17T09:50:02;10.20;18.10
20650;DHT22;10484;48.736;9.332;2024-03-17T09:52:29;10.20;16.40
20650;DHT22;10484;48.736;9.332;2024-03-17T09:55:00;10.30;14.70
20650;DHT22;10484;48.736;9.332;2024-03-17T09:57:26;10.40;11.70
20650;DHT22;10484;48.736;9.332;2024-03-17T09:59:55;10.60;8.30
20650;DHT22;10484;48.736;9.332;2024-03-17T10:02:21;10.60;5.80
20650;DHT22;10484;48.736;9.332;2024-03-17T10:04:47;10.70;3.50
20650;DHT22;10484;48.736;9.332;2024-03-17T10:07:13;10.80;1.60
20650;DHT22;10484;48.736;9.332;2024-03-17T10:09:43;10.80;1.00
20650;DHT22;10484;48.736;9.332;2024-03-17T10:12:29;10.80;1.00
20650;DHT22;10484;48.736;9.332;2024-03-17T10:14:58;10.90;1.00
20650;DHT22;10484;48.736;9.332;2024-03-17T10:17:32;11.00;1.00
20650;DHT22;10484;48.736;9.332;2024-03-17T10:20:17;11.20;1.00
20650;DHT22;10484;48.736;9.332;2024-03-17T10:23:03;11.40;1.00
20650;DHT22;10484;48.736;9.332;2024-03-17T10:25:33;11.40;1.00
20650;DHT22;10484;48.736;9.332;2024-03-17T10:28:00;11.50;1.00
20650;DHT22;10484;48.736;9.332;2024-03-17T10:30:27;11.50;1.00
20650;DHT22;10484;48.736;9.332;2024-03-17T10:32:58;11.50;1.00
20650;DHT22;10484;48.736;9.332;2024-03-17T10:35:29;11.60;1.00
20650;DHT22;10484;48.736;9.332;2024-03-17T10:37:57;11.60;1.00
20650;DHT22;10484;48.736;9.332;2024-03-17T10:40:24;11.80;1.00
20650;DHT22;10484;48.736;9.332;2024-03-17T10:42:50;11.80;1.00
20650;DHT22;10484;48.736;9.332;2024-03-17T10:45:16;11.80;1.00
20650;DHT22;10484;48.736;9.332;2024-03-17T10:47:48;11.80;1.00
20650;DHT22;10484;48.736;9.332;2024-03-17T10:50:22;11.90;1.00
20650;DHT22;10484;48.736;9.332;2024-03-17T10:52:50;11.90;1.00
20650;DHT22;10484;48.736;9.332;2024-03-17T10:55:24;12.00;1.00
20650;DHT22;10484;48.736;9.332;2024-03-17T10:57:54;12.00;1.00
20650;DHT22;10484;48.736;9.332;2024-03-17T11:00:24;12.00;1.00
20650;DHT22;10484;48.736;9.332;2024-03-17T11:02:51;12.00;1.00
20650;DHT22;10484;48.736;9.332;2024-03-17T11:05:29;12.20;1.00
20650;DHT22;10484;48.736;9.332;2024-03-17T11:07:57;12.20;1.00
20650;DHT22;10484;48.736;9.332;2024-03-17T11:10:31;12.20;1.00
20650;DHT22;10484;48.736;9.332;2024-03-17T11:12:58;12.40;1.00
20650;DHT22;10484;48.736;9.332;2024-03-17T11:20:34;12.80;1.00
20650;DHT22;10484;48.736;9.332;2024-03-17T11:23:01;12.90;1.00
20650;DHT22;10484;48.736;9.332;2024-03-17T11:28:06;13.00;1.00
20650;DHT22;10484;48.736;9.332;2024-03-17T11:38:54;13.20;1.00
20650;DHT22;10484;48.736;9.332;2024-03-17T11:41:40;13.20;1.00
20650;DHT22;10484;48.736;9.332;2024-03-17T11:47:05;13.30;1.00
20650;DHT22;10484;48.736;9.332;2024-03-17T11:49:36;13.30;1.00
20650;DHT22;10484;48.736;9.332;2024-03-17T11:52:13;13.20;1.00
20650;DHT22;10484;48.736;9.332;2024-03-17T11:54:46;13.30;1.00
20650;DHT22;10484;48.736;9.332;2024-03-17T11:57:21;13.50;1.00
20650;DHT22;10484;48.736;9.332;2024-03-17T11:59:51;13.60;1.00
20650;DHT22;10484;48.736;9.332;2024-03-17T12:02:20;13.60;1.00
20650;DHT22;10484;48.736;9.332;2024-03-17T12:04:46;13.50;1.00
20650;DHT22;10484;48.736;9.332;2024-03-17T12:07:13;13.70;1.00
20650;DHT22;10484;48.736;9.332;2024-03-17T12:09:41;13.70;1.00
20650;DHT22;10484;48.736;9.332;2024-03-17T12:12:20;13.70;1.00
20650;DHT22;10484;48.736;9.332;2024-03-17T12:14:47;13.70;1.00
20650;DHT22;10484;48.736;9.332;2024-03-17T12:17:21;13.70;1.00
20650;DHT22;10484;48.736;9.332;2024-03-17T12:19:47;13.70;1.00
20650;DHT22;10484;48.736;9.332;2024-03-17T12:22:32;13.70;1.00
20650;DHT22;10484;48.736;9.332;2024-03-17T12:25:02;13.70;1.00
20650;DHT22;10484;48.736;9.332;2024-03-17T12:27:27;13.70;1.00
20650;DHT22;10484;48.736;9.332;2024-03-17T12:29:54;13.70;1.00
20650;DHT22;10484;48.736;9.332;2024-03-17T12:32:24;13.70;1.00
20650;DHT22;10484;48.736;9.332;2024-03-17T12:37:24;13.80;1.00
20650;DHT22;10484;48.736;9.332;2024-03-17T12:39:59;13.90;1.00
20650;DHT22;10484;48.736;9.332;2024-03-17T12:42:26;14.00;1.00
20650;DHT22;10484;48.736;9.332;2024-03-17T12:45:00;14.00;1.00
20650;DHT22;10484;48.736;9.332;2024-03-17T12:47:30;14.10;1.00
20650;DHT22;10484;48.736;9.332;2024-03-17T12:49:56;14.10;1.00
20650;DHT22;10484;48.736;9.332;2024-03-17T12:57:49;14.10;1.00
20650;DHT22;10484;48.736;9.332;2024-03-17T13:00:34;14.10;1.00
20650;DHT22;10484;48.736;9.332;2024-03-17T13:03:06;14.10;1.00
20650;DHT22;10484;48.736;9.332;2024-03-17T13:05:32;14.00;1.00
20650;DHT22;10484;48.736;9.332;2024-03-17T13:07:58;14.00;1.00
20650;DHT22;10484;48.736;9.332;2024-03-17T13:10:28;14.10;1.00
20650;DHT22;10484;48.736;9.332;2024-03-17T13:13:04;14.00;1.00
20650;DHT22;10484;48.736;9.332;2024-03-17T13:15:31;14.00;1.00
20650;DHT22;10484;48.736;9.332;2024-03-17T13:17:58;14.00;1.00
20650;DHT22;10484;48.736;9.332;2024-03-17T13:20:24;14.10;1.00
20650;DHT22;10484;48.736;9.332;2024-03-17T13:22:49;14.10;1.00
20650;DHT22;10484;48.736;9.332;2024-03-17T13:25:19;14.10;1.00
20650;DHT22;10484;48.736;9.332;2024-03-17T13:27:47;14.10;1.00
20650;DHT22;10484;48.736;9.332;2024-03-17T13:30:17;14.10;1.00
20650;DHT22;10484;48.736;9.332;2024-03-17T13:32:43;14.20;1.00
20650;DHT22;10484;48.736;9.332;2024-03-17T13:35:20;14.20;1.00
20650;DHT22;10484;48.736;9.332;2024-03-17T13:37:46;14.10;1.00
20650;DHT22;10484;48.736;9.332;2024-03-17T13:40:13;14.10;1.00
20650;DHT22;10484;48.736;9.332;2024-03-17T13:42:42;14.10;1.00
20650;DHT22;10484;48.736;9.332;2024-03-17T13:45:11;14.20;1.00
20650;DHT22;10484;48.736;9.332;2024-03-17T13:47:37;14.20;1.00
20650;DHT22;10484;48.736;9.332;2024-03-17T13:50:03;14.30;1.00
20650;DHT22;10484;48.736;9.332;2024-03-17T13:52:39;14.30;1.00
20650;DHT22;10484;48.736;9.332;2024-03-17T13:55:06;14.30;1.00
20650;DHT22;10484;48.736;9.332;2024-03-17T13:57:34;14.40;1.00
20650;DHT22;10484;48.736;9.332;2024-03-17T13:59:59;14.40;1.00
20650;DHT22;10484;48.736;9.332;2024-03-17T14:02:25;14.40;1.00
20650;DHT22;10484;48.736;9.332;2024-03-17T14:04:51;14.50;1.00
20650;DHT22;10484;48.736;9.332;2024-03-17T14:07:16;14.50;1.00
20650;DHT22;10484;48.736;9.332;2024-03-17T14:09:42;14.50;1.00
20650;DHT22;10484;48.736;9.332;2024-03-17T14:12:08;14.50;1.00
20650;DHT22;10484;48.736;9.332;2024-03-17T14:14:34;14.50;1.00
20650;DHT22;10484;48.736;9.332;2024-03-17T14:16:59;14.60;1.00
20650;DHT22;10484;48.736;9.332;2024-03-17T14:19:25;14.60;1.00
20650;DHT22;10484;48.736;9.332;2024-03-17T14:21:51;14.60;1.00
20650;DHT22;10484;48.736;9.332;2024-03-17T14:24:17;14.60;1.00
20650;DHT22;10484;48.736;9.332;2024-03-17T14:26:42;14.60;1.00
20650;DHT22;10484;48.736;9.332;2024-03-17T14:29:08;14.60;1.00
20650;DHT22;10484;48.736;9.332;2024-03-17T14:31:33;14.60;1.00
20650;DHT22;10484;48.736;9.332;2024-03-17T14:34:03;14.60;1.00
20650;DHT22;10484;48.736;9.332;2024-03-17T14:36:31;14.60;1.00
20650;DHT22;10484;48.736;9.332;2024-03-17T14:39:01;14.60;1.00
20650;DHT22;10484;48.736;9.332;2024-03-17T14:41:30;14.70;1.00
20650;DHT22;10484;48.736;9.332;2024-03-17T14:43:56;14.70;1.00
20650;DHT22;10484;48.736;9.332;2024-03-17T14:46:23;14.70;1.00
20650;DHT22;10484;48.736;9.332;2024-03-17T14:48:48;14.70;1.00
20650;DHT22;10484;48.736;9.332;2024-03-17T14:51:19;14.70;1.00
20650;DHT22;10484;48.736;9.332;2024-03-17T14:53:47;14.70;1.00
20650;DHT22;10484;48.736;9.332;2024-03-17T14:56:17;14.70;1.00
20650;DHT22;10484;48.736;9.332;2024-03-17T14:58:44;14.80;1.00
20650;DHT22;10484;48.736;9.332;2024-03-17T15:01:11;14.80;1.00
20650;DHT22;10484;48.736;9.332;2024-03-17T15:03:37;14.80;1.00
20650;DHT22;10484;48.736;9.332;2024-03-17T15:06:03;14.90;1.00
20650;DHT22;10484;48.736;9.332;2024-03-17T15:08:33;14.90;1.00
20650;DHT22;10484;48.736;9.332;2024-03-17T15:10:59;14.90;1.00
20650;DHT22;10484;48.736;9.332;2024-03-17T15:13:25;14.90;1.00
20650;DHT22;10484;48.736;9.332;2024-03-17T15:15:50;14.90;1.00
20650;DHT22;10484;48.736;9.332;2024-03-17T15:18:17;14.90;1.00
20650;DHT22;10484;48.736;9.332;2024-03-17T15:20:43;14.90;1.00
20650;DHT22;10484;48.736;9.332;2024-03-17T15:23:09;14.90;1.00
20650;DHT22;10484;48.736;9.332;2024-03-17T15:25:34;14.90;1.00
20650;DHT22;10484;48.736;9.332;2024-03-17T15:28:00;14.90;1.00
20650;DHT22;10484;48.736;9.332;2024-03-17T15:30:27;15.00;1.00
20650;DHT22;10484;48.736;9.332;2024-03-17T15:32:55;15.00;1.00
20650;DHT22;10484;48.736;9.332;2024-03-17T15:35:24;14.90;1.00
20650;DHT22;10484;48.736;9.332;2024-03-17T15:37:49;14.90;1.00
20650;DHT22;10484;48.736;9.332;2024-03-17T15:40:15;14.90;1.00
20650;DHT22;10484;48.736;9.332;2024-03-17T15:42:45;14.90;1.00
20650;DHT22;10484;48.736;9.332;2024-03-17T15:45:11;14.90;1.00
20650;DHT22;10484;48.736;9.332;2024-03-17T15:47:37;14.90;1.00
20650;DHT22;10484;48.736;9.332;2024-03-17T15:50:02;14.90;1.00
20650;DHT22;10484;48.736;9.332;2024-03-17T15:52:28;14.90;1.00
20650;DHT22;10484;48.736;9.332;2024-03-17T15:54:55;15.00;1.00
20650;DHT22;10484;48.736;9.332;2024-03-17T15:57:21;15.00;1.00
20650;DHT22;10484;48.736;9.332;2024-03-17T15:59:47;15.00;1.00
20650;DHT22;10484;48.736;9.332;2024-03-17T16:02:13;15.00;1.00
20650;DHT22;10484;48.736;9.332;2024-03-17T16:04:39;15.00;1.00
20650;DHT22;10484;48.736;9.332;2024-03-17T16:07:05;14.90;1.00
20650;DHT22;10484;48.736;9.332;2024-03-17T16:09:34;14.90;1.00
20650;DHT22;10484;48.736;9.332;2024-03-17T16:12:00;14.90;1.00
20650;DHT22;10484;48.736;9.332;2024-03-17T16:14:25;14.90;1.00
20650;DHT22;10484;48.736;9.332;2024-03-17T16:16:51;14.90;1.00
20650;DHT22;10484;48.736;9.332;2024-03-17T16:19:17;14.90;1.00
20650;DHT22;10484;48.736;9.332;2024-03-17T16:21:43;14.80;1.00
20650;DHT22;10484;48.736;9.332;2024-03-17T16:24:11;14.80;1.00